createdAt,value
2018-11-23T00:00:37.828Z,20.43
2018-11-23T00:03:08.162Z,20.00
2018-11-23T00:05:38.206Z,20.07
2018-11-23T00:08:08.523Z,20.47
2018-11-23T00:10:38.644Z,19.40
2018-11-23T00:13:28.326Z,20.23
2018-11-23T00:15:58.224Z,19.47
2018-11-23T00:18:28.403Z,21.43
2018-11-23T00:20:58.530Z,20.23
2018-11-23T00:23:28.397Z,20.83
2018-11-23T00:25:59.206Z,22.07
2018-11-23T00:28:29.384Z,20.50
2018-11-23T00:30:59.096Z,19.77
2018-11-23T00:33:30.814Z,21.03
2018-11-23T00:36:01.039Z,21.07
2018-11-23T00:41:20.210Z,20.17
2018-11-23T00:43:50.329Z,20.07
2018-11-23T00:49:16.433Z,20.63
2018-11-23T00:54:44.911Z,20.33
2018-11-23T00:57:33.844Z,20.50
2018-11-23T01:00:03.944Z,21.20
2018-11-23T01:03:12.960Z,21.50
2018-11-23T01:05:44.037Z,19.53
2018-11-23T01:08:14.007Z,20.10
2018-11-23T01:10:43.980Z,21.23
2018-11-23T01:13:13.939Z,19.50
2018-11-23T01:15:44.099Z,19.87
2018-11-23T01:18:14.085Z,20.37
2018-11-23T01:20:44.126Z,21.67
2018-11-23T01:23:14.117Z,21.60
2018-11-23T01:26:03.000Z,21.50
2018-11-23T01:28:32.965Z,20.60
2018-11-23T01:31:02.970Z,19.97
2018-11-23T01:33:32.988Z,20.43
2018-11-23T01:36:03.082Z,21.93
2018-11-23T01:38:33.055Z,20.07
2018-11-23T01:41:02.998Z,20.67
2018-11-23T01:43:51.447Z,20.37
2018-11-23T01:46:22.182Z,20.57
2018-11-23T01:49:12.807Z,20.00
2018-11-23T01:52:02.894Z,21.90
2018-11-23T01:54:32.935Z,20.57
2018-11-23T01:57:04.382Z,21.10
2018-11-23T01:59:34.659Z,21.13
2018-11-23T02:02:04.467Z,20.80
2018-11-23T02:04:35.029Z,20.33
2018-11-23T02:07:05.019Z,20.77
2018-11-23T02:09:35.052Z,21.17
2018-11-23T02:12:05.136Z,21.03
2018-11-23T02:14:35.246Z,21.27
2018-11-23T02:17:05.283Z,19.90
2018-11-23T02:19:35.347Z,21.70
2018-11-23T02:22:05.839Z,20.73
2018-11-23T02:24:39.534Z,19.90
2018-11-23T02:27:28.232Z,21.13
2018-11-23T02:29:58.656Z,21.13
2018-11-23T02:32:28.761Z,20.50
2018-11-23T02:34:59.074Z,21.47
2018-11-23T02:37:28.907Z,20.90
2018-11-23T02:39:59.777Z,20.43
2018-11-23T02:42:29.794Z,19.53
2018-11-23T02:44:59.848Z,20.27
2018-11-23T02:47:30.012Z,20.53
2018-11-23T02:50:00.383Z,19.07
2018-11-23T02:52:30.570Z,20.80
2018-11-23T02:55:25.201Z,19.07
2018-11-23T02:57:55.060Z,20.50
2018-11-23T03:00:25.344Z,20.97
2018-11-23T03:03:15.335Z,19.80
2018-11-23T03:05:45.827Z,20.40
2018-11-23T03:08:15.676Z,20.60
2018-11-23T03:10:45.559Z,20.23
2018-11-23T03:13:15.735Z,21.10
2018-11-23T03:15:45.770Z,20.03
2018-11-23T03:18:15.801Z,20.60
2018-11-23T03:20:57.659Z,20.40
2018-11-23T03:23:42.373Z,21.27
2018-11-23T03:26:12.270Z,21.00
2018-11-23T03:31:59.722Z,21.20
2018-11-23T03:34:29.940Z,21.30
2018-11-23T03:37:00.104Z,21.10
2018-11-23T03:39:36.630Z,19.93
2018-11-23T03:42:07.741Z,21.57
2018-11-23T03:44:37.791Z,20.77
2018-11-23T03:47:07.977Z,20.93
2018-11-23T03:49:38.232Z,22.10
2018-11-23T03:52:08.190Z,22.20
2018-11-23T03:55:00.663Z,21.90
2018-11-23T03:57:31.616Z,20.27
2018-11-23T04:00:01.785Z,21.23
2018-11-23T04:02:31.786Z,22.90
2018-11-23T04:08:53.435Z,20.20
2018-11-23T04:11:49.583Z,21.50
2018-11-23T04:14:38.350Z,20.57
2018-11-23T04:17:27.474Z,22.50
2018-11-23T04:19:57.763Z,20.77
2018-11-23T04:22:27.602Z,20.67
2018-11-23T04:24:57.622Z,20.90
2018-11-23T04:27:27.925Z,21.50
2018-11-23T04:29:57.968Z,21.60
2018-11-23T04:32:28.183Z,21.63
2018-11-23T04:34:58.316Z,22.17
2018-11-23T04:37:28.603Z,22.33
2018-11-23T04:39:58.703Z,20.13
2018-11-23T04:42:28.931Z,21.60
2018-11-23T04:44:59.650Z,21.43
2018-11-23T04:47:30.017Z,22.27
2018-11-23T04:49:59.937Z,22.00
2018-11-23T04:55:21.793Z,20.23
2018-11-23T04:57:53.713Z,20.83
2018-11-23T05:00:22.014Z,21.20
2018-11-23T05:02:51.957Z,21.07
2018-11-23T05:05:22.660Z,21.37
2018-11-23T05:07:52.996Z,22.70
2018-11-23T05:13:29.538Z,23.50
2018-11-23T05:16:10.536Z,21.67
2018-11-23T05:18:40.801Z,21.07
2018-11-23T05:21:30.149Z,21.27
2018-11-23T05:24:00.524Z,21.77
2018-11-23T05:26:33.070Z,21.80
2018-11-23T05:29:03.894Z,20.83
2018-11-23T05:31:34.026Z,21.37
2018-11-23T05:34:22.750Z,20.93
2018-11-23T05:36:53.051Z,21.20
2018-11-23T05:39:23.159Z,22.07
2018-11-23T05:41:53.280Z,21.07
2018-11-23T05:44:23.261Z,21.30
2018-11-23T05:47:04.567Z,21.60
2018-11-23T05:49:34.651Z,21.03
2018-11-23T05:54:54.713Z,21.83
2018-11-23T05:57:26.213Z,23.57
2018-11-23T05:59:59.087Z,22.47
2018-11-23T06:05:25.204Z,22.07
2018-11-23T06:07:55.528Z,22.83
2018-11-23T06:10:25.715Z,22.77
2018-11-23T06:12:55.928Z,22.00
2018-11-23T06:15:26.518Z,22.00
2018-11-23T06:18:15.801Z,23.17
2018-11-23T06:20:46.063Z,22.50
2018-11-23T06:23:16.363Z,21.73
2018-11-23T06:26:25.264Z,23.10
2018-11-23T06:28:55.303Z,22.13
2018-11-23T06:34:20.966Z,22.67
2018-11-23T06:36:51.530Z,22.53
2018-11-23T06:39:21.862Z,22.57
2018-11-23T06:45:08.125Z,24.70
2018-11-23T06:47:38.581Z,23.10
2018-11-23T06:50:12.109Z,23.23
2018-11-23T06:52:42.503Z,24.37
2018-11-23T06:55:13.075Z,25.27
2018-11-23T06:57:43.367Z,26.07
2018-11-23T07:00:32.348Z,25.00
2018-11-23T07:03:02.310Z,22.40
2018-11-23T07:05:32.662Z,23.23
2018-11-23T07:08:02.740Z,23.40
2018-11-23T07:10:34.606Z,22.63
2018-11-23T07:13:04.701Z,22.37
2018-11-23T07:15:34.579Z,23.53
2018-11-23T07:18:04.567Z,23.27
2018-11-23T07:20:36.287Z,23.47
2018-11-23T07:23:06.506Z,22.87
2018-11-23T07:25:38.706Z,23.90
2018-11-23T07:28:15.093Z,23.70
2018-11-23T07:30:39.552Z,25.23
2018-11-23T07:33:09.545Z,23.70
2018-11-23T07:35:39.472Z,24.87
2018-11-23T07:38:09.379Z,23.53
2018-11-23T07:41:17.102Z,23.73
2018-11-23T07:43:47.246Z,23.83
2018-11-23T07:46:17.343Z,24.17
2018-11-23T07:48:47.627Z,24.27
2018-11-23T07:51:17.727Z,23.47
2018-11-23T07:53:47.910Z,24.20
2018-11-23T07:56:18.089Z,23.60
2018-11-23T07:58:49.404Z,23.80
2018-11-23T08:01:19.938Z,24.23
2018-11-23T08:03:50.037Z,24.57
2018-11-23T08:06:38.910Z,23.80
2018-11-23T08:09:13.231Z,23.77
2018-11-23T08:11:43.811Z,23.43
2018-11-23T08:14:18.655Z,23.80
2018-11-23T08:16:49.321Z,22.60
2018-11-23T08:19:19.550Z,23.73
2018-11-23T08:24:38.984Z,24.33
2018-11-23T08:27:09.676Z,25.00
2018-11-23T08:29:39.596Z,25.43
2018-11-23T08:32:09.695Z,25.67
2018-11-23T08:34:39.875Z,24.13
2018-11-23T08:37:28.811Z,24.17
2018-11-23T08:40:20.922Z,24.70
2018-11-23T08:43:10.388Z,22.77
2018-11-23T08:45:59.236Z,22.17
2018-11-23T08:48:31.637Z,23.47
2018-11-23T08:51:01.690Z,22.40
2018-11-23T08:53:51.129Z,24.83
2018-11-23T08:56:21.501Z,23.63
2018-11-23T08:59:10.375Z,23.03
2018-11-23T09:01:40.918Z,22.67
2018-11-23T09:04:11.032Z,23.60
2018-11-23T09:06:43.711Z,23.47
2018-11-23T09:09:14.541Z,28.20
2018-11-23T09:11:44.968Z,23.20
2018-11-23T09:14:15.015Z,22.27
2018-11-23T09:16:45.076Z,23.23
2018-11-23T09:19:15.654Z,22.43
2018-11-23T09:21:45.527Z,22.17
2018-11-23T09:24:15.572Z,23.27
2018-11-23T09:29:35.095Z,23.40
2018-11-23T09:32:05.461Z,23.03
2018-11-23T09:34:54.066Z,21.20
2018-11-23T09:37:24.169Z,22.43
2018-11-23T09:40:12.907Z,33.37
2018-11-23T09:42:43.225Z,22.60
2018-11-23T09:45:15.725Z,22.47
2018-11-23T09:47:46.597Z,40.83
2018-11-23T09:50:20.689Z,22.70
2018-11-23T09:52:52.197Z,23.20
2018-11-23T09:55:27.699Z,22.97
2018-11-23T09:57:57.807Z,21.90
2018-11-23T10:00:47.310Z,23.00
2018-11-23T10:03:17.970Z,23.67
2018-11-23T10:06:06.779Z,21.90
2018-11-23T10:08:37.521Z,22.30
2018-11-23T10:11:06.805Z,22.13
2018-11-23T10:13:36.748Z,22.90
2018-11-23T10:16:08.830Z,24.50
2018-11-23T10:18:38.822Z,22.60
2018-11-23T10:21:09.263Z,23.57
2018-11-23T10:23:39.587Z,22.87
2018-11-23T10:26:09.438Z,24.00
2018-11-23T10:28:39.718Z,23.20
2018-11-23T10:31:09.574Z,23.33
2018-11-23T10:36:37.833Z,22.03
2018-11-23T10:39:08.768Z,22.43
2018-11-23T10:41:38.629Z,21.27
2018-11-23T10:44:08.696Z,21.93
2018-11-23T10:49:08.923Z,21.97
2018-11-23T10:51:38.962Z,21.47
2018-11-23T10:54:09.319Z,22.30
2018-11-23T10:56:39.072Z,22.37
2018-11-23T10:59:09.028Z,23.43
2018-11-23T11:01:57.593Z,21.33
2018-11-23T11:04:48.591Z,21.77
2018-11-23T11:07:18.695Z,21.23
2018-11-23T11:09:48.689Z,19.67
2018-11-23T11:12:18.827Z,19.37
2018-11-23T11:17:32.438Z,19.80
2018-11-23T11:20:02.628Z,20.63
2018-11-23T11:22:51.416Z,20.03
2018-11-23T11:25:21.406Z,19.87
2018-11-23T11:27:51.351Z,19.33
2018-11-23T11:30:21.628Z,19.17
2018-11-23T11:32:51.769Z,19.33
2018-11-23T11:35:21.771Z,18.80
2018-11-23T11:37:52.167Z,18.90
2018-11-23T11:40:22.461Z,18.73
2018-11-23T11:42:52.351Z,19.07
2018-11-23T11:48:27.062Z,18.03
2018-11-23T11:50:57.286Z,18.87
2018-11-23T11:53:45.844Z,18.17
2018-11-23T11:56:16.168Z,17.97
2018-11-23T11:58:46.188Z,19.60
2018-11-23T12:01:16.362Z,18.73
2018-11-23T12:04:05.602Z,17.77
2018-11-23T12:06:36.557Z,17.67
2018-11-23T12:09:10.206Z,17.00
2018-11-23T12:11:40.081Z,17.27
2018-11-23T12:14:10.057Z,16.93
2018-11-23T12:16:40.545Z,17.37
2018-11-23T12:19:10.565Z,16.50
2018-11-23T12:21:40.923Z,16.90
2018-11-23T12:24:10.912Z,20.43
2018-11-23T12:26:40.817Z,17.70
2018-11-23T12:29:10.843Z,17.70
2018-11-23T12:31:40.933Z,19.17
2018-11-23T12:34:10.915Z,17.13
2018-11-23T12:36:40.918Z,16.70
2018-11-23T12:39:10.734Z,17.80
2018-11-23T12:41:40.688Z,18.57
2018-11-23T12:44:10.696Z,16.77
2018-11-23T12:46:40.788Z,17.23
2018-11-23T12:49:10.725Z,17.13
2018-11-23T12:51:42.698Z,17.80
2018-11-23T12:54:23.658Z,17.03
2018-11-23T12:56:53.505Z,16.43
2018-11-23T12:59:23.402Z,16.87
2018-11-23T13:01:53.373Z,17.63
2018-11-23T13:04:23.337Z,16.73
2018-11-23T13:06:53.522Z,18.57
2018-11-23T13:09:23.611Z,15.70
2018-11-23T13:11:53.492Z,18.03
2018-11-23T13:14:23.387Z,17.07
2018-11-23T13:16:53.427Z,16.17
2018-11-23T13:19:23.208Z,19.13
2018-11-23T13:21:53.135Z,17.17
2018-11-23T13:27:52.343Z,14.43
2018-11-23T13:30:41.009Z,16.00
2018-11-23T13:33:11.015Z,15.53
2018-11-23T13:35:59.944Z,18.17
2018-11-23T13:38:32.113Z,15.60
2018-11-23T13:41:02.329Z,14.93
2018-11-23T13:43:32.548Z,16.23
2018-11-23T13:46:02.712Z,15.10
2018-11-23T13:48:32.770Z,16.93
2018-11-23T13:51:02.742Z,14.77
2018-11-23T13:53:32.741Z,15.07
2018-11-23T13:56:02.773Z,13.73
2018-11-23T13:58:32.950Z,15.50
2018-11-23T14:04:06.801Z,14.33
2018-11-23T14:06:36.747Z,14.20
2018-11-23T14:09:10.771Z,14.57
2018-11-23T14:11:41.745Z,14.40
2018-11-23T14:14:12.474Z,14.90
2018-11-23T14:16:42.513Z,14.87
2018-11-23T14:19:12.400Z,13.97
2018-11-23T14:21:42.415Z,13.97
2018-11-23T14:24:12.445Z,14.10
2018-11-23T14:26:42.372Z,13.90
2018-11-23T14:29:23.693Z,14.63
2018-11-23T14:31:53.933Z,14.50
2018-11-23T14:34:24.079Z,17.83
2018-11-23T14:36:54.224Z,18.20
2018-11-23T14:39:24.530Z,16.17
2018-11-23T14:41:54.641Z,14.03
2018-11-23T14:44:24.588Z,14.83
2018-11-23T14:46:55.721Z,15.60
2018-11-23T14:49:25.832Z,14.30
2018-11-23T14:51:55.803Z,13.90
2018-11-23T14:54:42.679Z,14.60
2018-11-23T14:57:19.070Z,14.93
2018-11-23T14:59:49.827Z,14.60
2018-11-23T15:02:40.911Z,13.17
2018-11-23T15:05:10.994Z,14.03
2018-11-23T15:07:41.153Z,14.47
2018-11-23T15:10:13.834Z,13.83
2018-11-23T15:12:44.515Z,14.47
2018-11-23T15:18:42.155Z,14.43
2018-11-23T15:21:31.172Z,12.80
2018-11-23T15:24:20.960Z,78.57
2018-11-23T15:26:51.250Z,51.43
2018-11-23T15:29:41.943Z,23.77
2018-11-23T15:32:11.966Z,19.37
2018-11-23T15:34:42.079Z,16.73
2018-11-23T15:40:01.607Z,17.23
2018-11-23T15:42:51.853Z,14.33
2018-11-23T15:45:23.622Z,14.83
2018-11-23T15:47:54.031Z,13.77
2018-11-23T15:50:28.365Z,14.00
2018-11-23T15:52:58.492Z,13.97
2018-11-23T15:55:30.030Z,14.27
2018-11-23T15:58:01.792Z,14.30
2018-11-23T16:00:50.461Z,14.10
2018-11-23T16:03:39.287Z,13.73
2018-11-23T16:06:11.294Z,13.10
2018-11-23T16:08:41.746Z,15.27
2018-11-23T16:11:11.813Z,13.67
2018-11-23T16:13:42.053Z,13.93
2018-11-23T16:16:12.080Z,13.33
2018-11-23T16:18:42.465Z,13.37
2018-11-23T16:21:12.748Z,12.37
2018-11-23T16:23:42.898Z,14.30
2018-11-23T16:26:15.481Z,13.57
2018-11-23T16:28:45.326Z,14.23
2018-11-23T16:31:15.321Z,14.87
2018-11-23T16:33:45.327Z,14.77
2018-11-23T16:36:15.471Z,15.03
2018-11-23T16:38:45.458Z,15.37
2018-11-23T16:41:15.313Z,15.43
2018-11-23T16:43:45.360Z,14.70
2018-11-23T16:46:15.300Z,14.87
2018-11-23T16:48:45.820Z,15.13
2018-11-23T16:51:15.651Z,15.17
2018-11-23T16:53:47.637Z,14.73
2018-11-23T16:57:04.203Z,15.60
2018-11-23T16:59:33.092Z,13.73
2018-11-23T17:02:02.230Z,15.27
2018-11-23T17:04:31.022Z,15.03
2018-11-23T17:06:59.974Z,14.40
2018-11-23T17:09:29.153Z,16.60
2018-11-23T17:11:57.860Z,15.00
2018-11-23T17:14:26.817Z,15.63
2018-11-23T17:16:55.773Z,14.77
2018-11-23T17:19:24.674Z,14.57
2018-11-23T17:21:53.967Z,14.70
2018-11-23T17:24:23.038Z,15.63
2018-11-23T17:26:52.102Z,16.53
2018-11-23T17:29:23.149Z,17.00
2018-11-23T17:31:50.861Z,16.53
2018-11-23T17:34:20.011Z,16.57
2018-11-23T17:36:49.098Z,17.00
2018-11-23T17:39:19.116Z,17.07
2018-11-23T17:41:48.606Z,17.23
2018-11-23T17:44:17.337Z,16.83
2018-11-23T17:46:46.385Z,17.67
2018-11-23T17:49:15.191Z,16.93
2018-11-23T17:51:44.185Z,17.50
2018-11-23T17:54:13.056Z,18.77
2018-11-23T17:56:41.962Z,17.83
2018-11-23T17:59:10.981Z,16.20
2018-11-23T18:01:39.937Z,18.87
2018-11-23T18:04:09.401Z,17.47
2018-11-23T18:06:38.138Z,15.90
2018-11-23T18:09:08.573Z,15.10
2018-11-23T18:11:37.700Z,15.47
2018-11-23T18:14:07.109Z,14.93
2018-11-23T18:16:35.903Z,15.17
2018-11-23T18:19:05.045Z,17.97
2018-11-23T18:21:33.962Z,16.97
2018-11-23T18:24:02.780Z,14.77
2018-11-23T18:26:31.636Z,14.53
2018-11-23T18:29:00.795Z,14.20
2018-11-23T18:31:29.728Z,15.50
2018-11-23T18:33:59.110Z,15.40
2018-11-23T18:36:28.159Z,14.40
2018-11-23T18:38:57.051Z,14.30
2018-11-23T18:41:25.944Z,15.57
2018-11-23T18:43:54.785Z,14.73
2018-11-23T18:46:23.545Z,14.63
2018-11-23T18:48:52.565Z,14.97
2018-11-23T18:51:21.425Z,14.17
2018-11-23T18:53:50.444Z,15.03
2018-11-23T18:56:19.448Z,15.63
2018-11-23T18:58:48.861Z,15.57
2018-11-23T19:01:17.662Z,15.73
2018-11-23T19:03:46.744Z,14.97
2018-11-23T19:06:15.622Z,15.80
2018-11-23T19:08:44.660Z,15.27
2018-11-23T19:11:13.368Z,15.20
2018-11-23T19:13:42.213Z,15.03
2018-11-23T19:16:11.934Z,14.50
2018-11-23T19:18:49.827Z,15.20
2018-11-23T19:21:18.746Z,14.53
2018-11-23T19:23:47.552Z,14.93
2018-11-23T19:26:16.276Z,14.87
2018-11-23T19:28:45.055Z,15.17
2018-11-23T19:31:14.687Z,14.73
2018-11-23T19:33:43.386Z,14.50
2018-11-23T19:36:13.188Z,14.13
2018-11-23T19:38:42.057Z,14.73
2018-11-23T19:41:10.962Z,14.50
2018-11-23T19:43:39.814Z,13.77
2018-11-23T19:46:08.739Z,13.97
2018-11-23T19:48:37.851Z,14.27
2018-11-23T19:51:07.016Z,13.97
2018-11-23T19:53:35.947Z,13.60
2018-11-23T19:56:05.338Z,14.30
2018-11-23T19:58:34.965Z,14.07
2018-11-23T20:01:03.847Z,14.27
2018-11-23T20:03:33.303Z,14.03
2018-11-23T20:06:02.818Z,13.90
2018-11-23T20:08:31.784Z,14.40
2018-11-23T20:11:01.351Z,13.97
2018-11-23T20:13:30.288Z,16.73
2018-11-23T20:15:59.372Z,15.50
2018-11-23T20:18:28.470Z,17.20
2018-11-23T20:20:58.664Z,15.87
2018-11-23T20:23:27.834Z,15.13
2018-11-23T20:25:57.048Z,15.57
2018-11-23T20:28:26.194Z,15.93
2018-11-23T20:30:55.201Z,16.73
2018-11-23T20:33:24.137Z,14.40
2018-11-23T20:35:53.052Z,16.00
2018-11-23T20:38:21.923Z,15.60
2018-11-23T20:40:51.863Z,14.70
2018-11-23T20:43:20.858Z,15.57
2018-11-23T20:45:49.900Z,15.60
2018-11-23T20:48:18.992Z,15.63
2018-11-23T20:50:49.552Z,15.00
2018-11-23T20:53:18.509Z,15.63
2018-11-23T20:55:47.686Z,16.57
2018-11-23T20:58:16.485Z,16.00
2018-11-23T21:00:46.237Z,16.43
2018-11-23T21:03:15.445Z,15.20
2018-11-23T21:05:44.409Z,14.83
2018-11-23T21:08:15.787Z,15.83
2018-11-23T21:10:45.684Z,16.20
2018-11-23T21:13:14.957Z,15.40
2018-11-23T21:15:43.793Z,15.10
2018-11-23T21:18:12.941Z,15.90
2018-11-23T21:20:50.655Z,16.80
2018-11-23T21:23:19.624Z,16.13
2018-11-23T21:25:49.720Z,16.10
2018-11-23T21:28:18.622Z,15.67
2018-11-23T21:30:48.533Z,17.00
2018-11-23T21:33:17.474Z,16.50
2018-11-23T21:35:46.717Z,17.33
2018-11-23T21:38:22.289Z,17.77
2018-11-23T21:40:51.819Z,17.97
2018-11-23T21:43:20.924Z,17.07
2018-11-23T21:45:49.769Z,15.80
2018-11-23T21:48:18.603Z,16.53
2018-11-23T21:50:47.550Z,18.70
2018-11-23T21:53:16.530Z,18.27
2018-11-23T21:55:45.372Z,17.93
2018-11-23T21:58:14.337Z,16.60
2018-11-23T22:00:43.285Z,17.53
2018-11-23T22:03:12.183Z,17.97
2018-11-23T22:05:41.133Z,17.13
2018-11-23T22:08:09.880Z,15.97
2018-11-23T22:10:38.994Z,16.47
2018-11-23T22:13:07.971Z,16.57
2018-11-23T22:15:37.457Z,17.70
2018-11-23T22:18:06.478Z,17.00
2018-11-23T22:20:35.545Z,16.33
2018-11-23T22:23:04.491Z,18.13
2018-11-23T22:25:33.245Z,17.90
2018-11-23T22:28:02.726Z,17.40
2018-11-23T22:30:31.957Z,17.30
2018-11-23T22:33:00.691Z,17.67
2018-11-23T22:35:30.574Z,16.60
2018-11-23T22:37:59.298Z,17.83
2018-11-23T22:40:29.417Z,17.47
2018-11-23T22:42:58.890Z,17.73
2018-11-23T22:45:27.925Z,16.73
2018-11-23T22:47:57.213Z,17.87
2018-11-23T22:50:26.078Z,17.37
2018-11-23T22:52:54.907Z,17.57
2018-11-23T22:55:23.942Z,18.73
2018-11-23T22:57:52.772Z,17.13
2018-11-23T23:00:31.806Z,18.57
2018-11-23T23:03:00.828Z,18.27
2018-11-23T23:05:29.980Z,19.60
2018-11-23T23:07:58.909Z,18.37
2018-11-23T23:10:29.625Z,17.90
2018-11-23T23:12:58.384Z,19.10
2018-11-23T23:15:27.157Z,17.50
2018-11-23T23:17:56.080Z,19.73
2018-11-23T23:20:24.961Z,20.33
2018-11-23T23:22:53.816Z,18.80
2018-11-23T23:25:22.791Z,19.90
2018-11-23T23:27:51.925Z,19.67
2018-11-23T23:30:20.980Z,19.30
2018-11-23T23:32:50.129Z,19.67
2018-11-23T23:35:19.221Z,20.27
2018-11-23T23:37:48.001Z,22.63
2018-11-23T23:40:17.756Z,21.57
2018-11-23T23:42:47.014Z,21.17
2018-11-23T23:45:17.679Z,21.23
2018-11-23T23:47:46.539Z,22.00
2018-11-23T23:50:18.242Z,20.73
2018-11-23T23:52:47.258Z,20.50
2018-11-23T23:55:16.230Z,22.27
2018-11-23T23:57:45.938Z,19.77
